Time;durP1;ratioP1;P1;durP2;ratioP2;P2;SDS_P1;SDS_P2;PMS_P1;PMS_P2;Temp;Humidity;BMP_temperature;BMP_pressure;BME280_temperature;BME280_humidity;BME280_pressure;Samples;Min_cycle;Max_cycle;Signal;HPM_P1;HPM_P2
2023/01/02 00:01:37;;;;;;;14.52;3.95;;;9.60;98.30;;;;;;5022850;28;20034;-70
2023/01/02 00:04:02;;;;;;;10.85;3.97;;;9.60;98.30;;;;;;5025827;28;20390;-69
2023/01/02 00:06:31;;;;;;;8.77;3.92;;;9.60;98.40;;;;;;5025473;28;20048;-68
2023/01/02 00:08:56;;;;;;;10.55;4.15;;;9.60;98.40;;;;;;5023517;28;20056;-68
2023/01/02 00:11:22;;;;;;;11.80;4.63;;;9.60;98.50;;;;;;5028013;28;20038;-68
2023/01/02 00:13:47;;;;;;;9.10;4.22;;;9.60;98.50;;;;;;5026313;28;20037;-68
2023/01/02 00:16:13;;;;;;;12.98;4.10;;;9.60;98.70;;;;;;5025064;28;20057;-69
2023/01/02 00:18:38;;;;;;;8.57;3.90;;;9.60;98.70;;;;;;5019903;28;20091;-69
2023/01/02 00:21:05;;;;;;;14.85;3.88;;;9.60;98.90;;;;;;5027969;28;20048;-68
2023/01/02 00:23:31;;;;;;;12.13;4.45;;;9.70;98.80;;;;;;5030800;28;20036;-68
2023/01/02 00:25:56;;;;;;;11.93;4.15;;;9.70;98.90;;;;;;5031734;28;20117;-68
2023/01/02 00:28:22;;;;;;;11.18;3.75;;;9.70;98.80;;;;;;5028649;28;20064;-69
2023/01/02 00:30:47;;;;;;;11.43;4.18;;;9.70;98.80;;;;;;5030348;28;20175;-68
2023/01/02 00:33:14;;;;;;;10.25;4.28;;;9.70;98.80;;;;;;5027937;28;20037;-68
2023/01/02 00:35:39;;;;;;;10.30;4.55;;;9.60;98.90;;;;;;5026229;28;20033;-68
2023/01/02 00:38:05;;;;;;;12.27;4.50;;;9.70;98.90;;;;;;5029415;28;20037;-68
2023/01/02 00:40:31;;;;;;;8.43;3.88;;;9.70;98.90;;;;;;5031678;28;20037;-68
2023/01/02 00:42:56;;;;;;;8.80;4.00;;;9.70;98.90;;;;;;5028753;28;20026;-68
2023/01/02 00:45:22;;;;;;;11.38;4.05;;;9.70;98.90;;;;;;5025143;28;20029;-68
2023/01/02 00:47:47;;;;;;;8.65;3.75;;;9.60;98.90;;;;;;5030673;28;20120;-69
2023/01/02 00:50:13;;;;;;;12.68;4.20;;;9.60;98.90;;;;;;5028465;28;20026;-68
2023/01/02 00:52:38;;;;;;;12.80;4.18;;;9.70;98.90;;;;;;5022896;28;20473;-68
2023/01/02 00:55:04;;;;;;;12.30;4.22;;;9.70;98.90;;;;;;5028611;28;20041;-68
2023/01/02 00:57:29;;;;;;;11.93;4.60;;;9.70;98.90;;;;;;5027486;28;20082;-68
2023/01/02 00:59:55;;;;;;;9.38;4.60;;;9.70;98.90;;;;;;5028733;28;20032;-68
2023/01/02 01:02:20;;;;;;;9.98;5.03;;;9.70;98.90;;;;;;5029046;28;20041;-68
2023/01/02 01:04:46;;;;;;;11.82;4.60;;;9.70;98.80;;;;;;5028536;28;20057;-70
2023/01/02 01:07:11;;;;;;;11.27;4.65;;;9.70;98.80;;;;;;5029214;28;20041;-68
2023/01/02 01:09:37;;;;;;;9.68;4.82;;;9.80;98.80;;;;;;5023070;28;20038;-70
2023/01/02 01:12:03;;;;;;;9.00;4.45;;;9.70;98.80;;;;;;5023593;28;20034;-68
2023/01/02 01:14:28;;;;;;;10.70;4.50;;;9.80;98.80;;;;;;5026175;28;20041;-68
2023/01/02 01:16:53;;;;;;;14.18;4.93;;;9.70;98.70;;;;;;5023377;28;20034;-70
2023/01/02 01:19:19;;;;;;;11.13;4.82;;;9.80;98.70;;;;;;5021107;28;20025;-69
2023/01/02 01:21:44;;;;;;;10.07;4.50;;;9.80;98.60;;;;;;5026701;28;20059;-69
2023/01/02 01:24:10;;;;;;;16.58;5.10;;;9.80;98.60;;;;;;5028014;28;20042;-71
2023/01/02 01:26:36;;;;;;;9.38;4.45;;;9.80;98.60;;;;;;5025606;28;20087;-68
2023/01/02 01:29:01;;;;;;;11.25;4.57;;;9.80;98.60;;;;;;5030170;28;20061;-70
2023/01/02 01:31:27;;;;;;;12.30;4.55;;;9.90;98.50;;;;;;5029768;28;20094;-68
2023/01/02 01:33:53;;;;;;;10.93;4.63;;;9.80;98.40;;;;;;5025943;28;20052;-69
2023/01/02 01:36:22;;;;;;;9.68;4.25;;;9.90;98.40;;;;;;5028637;28;20034;-68
2023/01/02 01:38:49;;;;;;;11.10;4.78;;;10.00;98.20;;;;;;5027509;28;20026;-68
2023/01/02 01:41:17;;;;;;;14.48;4.80;;;10.00;98.10;;;;;;5027764;28;20124;-69
2023/01/02 01:43:48;;;;;;;8.73;4.03;;;10.10;97.90;;;;;;5029552;28;20916;-68
2023/01/02 01:46:35;;;;;;;11.48;4.80;;;10.10;97.80;;;;;;5033592;28;20030;-68
2023/01/02 01:49:23;;;;;;;12.05;4.32;;;10.10;97.70;;;;;;5029023;28;20021;-68
2023/01/02 01:51:57;;;;;;;10.05;3.95;;;10.20;97.60;;;;;;5026054;28;20506;-68
2023/01/02 01:54:38;;;;;;;14.15;4.15;;;10.30;97.60;;;;;;5030828;28;20108;-68
2023/01/02 01:57:30;;;;;;;11.45;4.13;;;10.40;97.30;;;;;;5027679;28;20045;-68
2023/01/02 01:59:59;;;;;;;9.68;4.05;;;10.40;97.20;;;;;;5027666;28;20044;-68
2023/01/02 02:02:27;;;;;;;14.00;4.20;;;10.50;97.10;;;;;;5031900;28;20076;-68
2023/01/02 02:04:54;;;;;;;9.00;4.32;;;10.40;97.20;;;;;;5031906;28;20037;-68
2023/01/02 02:07:19;;;;;;;12.23;4.35;;;10.50;97.20;;;;;;5031721;28;20041;-69
2023/01/02 02:09:56;;;;;;;13.68;4.47;;;10.50;97.20;;;;;;5035884;28;20040;-69
2023/01/02 02:12:22;;;;;;;9.57;3.85;;;10.50;97.10;;;;;;5029922;28;20037;-69
2023/01/02 02:14:47;;;;;;;9.48;3.92;;;10.60;97.00;;;;;;5031031;28;20041;-69
2023/01/02 02:17:55;;;;;;;9.75;4.15;;;10.60;96.90;;;;;;5030802;28;20080;-68
2023/01/02 02:20:26;;;;;;;13.75;3.75;;;10.70;96.80;;;;;;5021596;28;20029;-68
2023/01/02 02:22:59;;;;;;;;;;;10.80;96.50;;;;;;5028104;28;20061;-68
2023/01/02 02:26:04;;;;;;;5.53;3.15;;;10.90;96.40;;;;;;5028854;28;19923;-69
2023/01/02 02:28:48;;;;;;;10.57;4.00;;;10.90;96.40;;;;;;5031086;28;20136;-69
2023/01/02 02:31:35;;;;;;;11.50;3.53;;;11.00;96.30;;;;;;5032700;28;20512;-69
2023/01/02 02:34:15;;;;;;;11.55;3.97;;;11.00;96.00;;;;;;5026077;28;20124;-68
2023/01/02 02:36:54;;;;;;;10.27;3.72;;;11.00;96.10;;;;;;5030219;28;20041;-68
2023/01/02 02:39:29;;;;;;;10.77;4.10;;;11.10;96.00;;;;;;5032225;28;20057;-68
2023/01/02 02:41:59;;;;;;;10.52;3.58;;;11.20;95.90;;;;;;5029087;28;20131;-68
2023/01/02 02:44:43;;;;;;;10.25;3.50;;;11.20;95.80;;;;;;5026154;28;20037;-68
2023/01/02 02:47:34;;;;;;;11.52;3.63;;;11.20;95.70;;;;;;5032904;28;20033;-69
2023/01/02 02:50:09;;;;;;;13.75;4.22;;;11.20;95.50;;;;;;5023627;28;20017;-70
2023/01/02 02:52:49;;;;;;;10.98;3.35;;;11.20;95.80;;;;;;5023512;28;20088;-69
2023/01/02 02:55:38;;;;;;;11.00;4.30;;;11.10;95.50;;;;;;5031606;28;20038;-68
2023/01/02 02:58:05;;;;;;;7.68;3.58;;;11.10;95.80;;;;;;5028181;28;20520;-69
2023/01/02 03:00:30;;;;;;;15.02;3.70;;;11.10;95.80;;;;;;5030807;28;20030;-68
2023/01/02 03:02:56;;;;;;;13.73;4.00;;;11.20;95.70;;;;;;5030110;28;20040;-70
2023/01/02 03:05:36;;;;;;;11.45;3.28;;;11.20;95.70;;;;;;5028161;28;20100;-69
2023/01/02 03:08:10;;;;;;;9.50;3.33;;;11.30;95.40;;;;;;5028750;28;20061;-70
2023/01/02 03:10:46;;;;;;;12.25;3.88;;;11.40;95.10;;;;;;5028767;28;20350;-68
2023/01/02 03:13:22;;;;;;;11.73;3.90;;;11.40;95.00;;;;;;5030065;28;20033;-68
2023/01/02 03:16:06;;;;;;;9.48;3.30;;;11.40;95.10;;;;;;5031144;28;20052;-68
2023/01/02 03:18:49;;;;;;;9.75;3.47;;;11.50;95.10;;;;;;5027195;28;20477;-69
2023/01/02 03:21:31;;;;;;;9.00;3.78;;;11.60;94.80;;;;;;5024643;28;20171;-69
2023/01/02 03:24:01;;;;;;;12.80;3.80;;;11.70;94.60;;;;;;5029478;28;20063;-68
2023/01/02 03:26:29;;;;;;;12.82;3.80;;;11.80;94.30;;;;;;5028691;28;20107;-69
2023/01/02 03:29:00;;;;;;;10.27;3.08;;;11.90;93.70;;;;;;5029953;28;20030;-69
2023/01/02 03:31:30;;;;;;;9.83;3.10;;;11.90;93.80;;;;;;5025471;28;20037;-69
2023/01/02 03:34:03;;;;;;;11.57;3.85;;;11.90;94.00;;;;;;5025291;28;20288;-68
2023/01/02 03:36:31;;;;;;;10.77;3.05;;;11.80;94.10;;;;;;5030321;28;20476;-68
2023/01/02 03:39:11;;;;;;;8.95;3.28;;;11.90;94.10;;;;;;5031314;28;20040;-68
2023/01/02 03:41:45;;;;;;;8.52;3.92;;;11.80;94.10;;;;;;5031216;28;20106;-68
2023/01/02 03:44:12;;;;;;;12.75;3.60;;;11.90;94.10;;;;;;5031969;28;20025;-68
2023/01/02 03:47:01;;;;;;;8.57;3.60;;;11.80;94.40;;;;;;5030702;28;20036;-68
2023/01/02 03:49:37;;;;;;;9.65;3.47;;;11.90;94.30;;;;;;5024269;28;20034;-68
2023/01/02 03:52:03;;;;;;;10.05;3.35;;;11.80;94.50;;;;;;5029323;28;20048;-69
2023/01/02 03:54:29;;;;;;;9.45;2.83;;;11.80;94.40;;;;;;5032198;28;20037;-68
2023/01/02 03:57:00;;;;;;;15.05;3.60;;;11.80;94.80;;;;;;5024617;28;20061;-69
2023/01/02 03:59:50;;;;;;;8.25;3.40;;;11.80;94.70;;;;;;5028902;28;20041;-69
2023/01/02 04:02:40;;;;;;;8.18;3.33;;;11.70;94.80;;;;;;5026204;28;20049;-68
2023/01/02 04:05:19;;;;;;;16.17;3.55;;;11.60;95.00;;;;;;5020990;28;20040;-68
2023/01/02 04:08:03;;;;;;;10.15;3.58;;;11.60;95.20;;;;;;5030054;28;20065;-69
2023/01/02 04:10:29;;;;;;;11.00;3.75;;;11.60;95.20;;;;;;5026123;28;20608;-68
2023/01/02 04:13:01;;;;;;;10.35;3.63;;;11.50;95.40;;;;;;5031107;28;20037;-69
2023/01/02 04:15:32;;;;;;;14.77;3.70;;;11.50;95.70;;;;;;5027347;28;20478;-68
2023/01/02 04:18:06;;;;;;;6.50;3.45;;;11.50;95.90;;;;;;5031561;28;20031;-69
2023/01/02 04:20:43;;;;;;;9.85;3.80;;;11.50;96.00;;;;;;5028636;28;20047;-68
2023/01/02 04:23:20;;;;;;;15.23;4.07;;;11.40;96.20;;;;;;5021527;28;20054;-68
2023/01/02 04:25:55;;;;;;;11.43;4.00;;;11.40;96.30;;;;;;5026527;28;20036;-68
2023/01/02 04:28:29;;;;;;;12.57;4.03;;;11.30;96.50;;;;;;5026791;28;20383;-69
2023/01/02 04:31:19;;;;;;;14.57;4.85;;;11.30;96.80;;;;;;5025462;28;20485;-68
2023/01/02 04:33:56;;;;;;;9.45;3.97;;;11.30;96.90;;;;;;5025939;28;20029;-68
2023/01/02 04:36:22;;;;;;;12.13;4.13;;;11.20;96.90;;;;;;5026947;28;20073;-70
2023/01/02 04:38:47;;;;;;;9.38;3.72;;;11.20;97.10;;;;;;5026865;28;20545;-68
2023/01/02 04:41:25;;;;;;;13.77;4.07;;;11.10;97.10;;;;;;5031254;28;20504;-71
2023/01/02 04:43:57;;;;;;;17.35;4.68;;;11.10;97.20;;;;;;5024089;28;20033;-68
2023/01/02 04:46:24;;;;;;;10.77;4.55;;;11.10;97.30;;;;;;5030712;28;20479;-69
2023/01/02 04:48:50;;;;;;;14.77;4.32;;;11.10;97.20;;;;;;5022238;28;20025;-68
2023/01/02 04:51:16;;;;;;;9.18;3.83;;;11.00;97.30;;;;;;5028142;28;21206;-68
2023/01/02 04:53:41;;;;;;;8.52;4.22;;;11.00;97.60;;;;;;5026494;28;20087;-69
2023/01/02 04:56:07;;;;;;;13.18;4.53;;;10.90;97.70;;;;;;5029981;28;20051;-68
2023/01/02 04:58:32;;;;;;;9.55;4.00;;;10.90;98.00;;;;;;5028789;28;20041;-68
2023/01/02 05:00:58;;;;;;;9.63;4.28;;;10.80;98.00;;;;;;5021772;28;20026;-68
2023/01/02 05:03:24;;;;;;;11.70;4.38;;;10.80;98.30;;;;;;5022379;28;20432;-69
2023/01/02 05:05:50;;;;;;;11.25;4.82;;;10.80;98.30;;;;;;5029491;28;20033;-69
2023/01/02 05:08:15;;;;;;;10.35;4.55;;;10.80;98.50;;;;;;5026055;28;20029;-70
2023/01/02 05:10:41;;;;;;;13.75;4.57;;;10.70;98.60;;;;;;5029495;28;20108;-68
2023/01/02 05:13:06;;;;;;;11.88;4.55;;;10.70;98.70;;;;;;5030582;28;20025;-69
2023/01/02 05:15:31;;;;;;;11.65;4.85;;;10.70;98.80;;;;;;5027154;28;20504;-68
2023/01/02 05:17:57;;;;;;;12.27;4.72;;;10.70;98.80;;;;;;5027794;28;20108;-68
2023/01/02 05:20:23;;;;;;;15.55;5.20;;;10.80;98.90;;;;;;5023968;28;20033;-68
2023/01/02 05:25:33;;;;;;;10.25;4.50;;;10.80;99.00;;;;;;5028206;28;20091;-70
2023/01/02 05:27:59;;;;;;;10.75;4.85;;;10.80;99.10;;;;;;5028235;28;20033;-70
2023/01/02 05:30:25;;;;;;;11.05;4.63;;;10.90;99.20;;;;;;5024862;28;20097;-68
2023/01/02 05:32:50;;;;;;;14.00;5.28;;;11.00;99.30;;;;;;5029501;28;20477;-69
2023/01/02 05:35:16;;;;;;;12.68;4.72;;;11.00;99.10;;;;;;5026507;28;20060;-69
2023/01/02 05:37:42;;;;;;;9.38;5.03;;;11.00;99.10;;;;;;5028510;28;20038;-69
2023/01/02 05:40:08;;;;;;;19.42;5.57;;;11.10;99.30;;;;;;5025851;28;20057;-69
2023/01/02 05:42:33;;;;;;;17.33;6.05;;;11.00;99.30;;;;;;5026381;28;20048;-69
2023/01/02 05:44:59;;;;;;;12.20;5.28;;;11.00;99.40;;;;;;5028260;28;20413;-69
2023/01/02 05:47:24;;;;;;;14.63;5.63;;;11.00;99.50;;;;;;5026480;28;20033;-70
2023/01/02 05:49:50;;;;;;;16.60;5.43;;;11.10;99.60;;;;;;5026902;28;20500;-69
2023/01/02 05:52:15;;;;;;;17.25;5.72;;;11.10;99.50;;;;;;5021177;28;20061;-69
2023/01/02 05:54:41;;;;;;;13.90;5.53;;;11.00;99.60;;;;;;5024923;28;20524;-69
2023/01/02 05:57:06;;;;;;;13.18;5.47;;;11.10;99.70;;;;;;5023097;28;20062;-69
2023/01/02 05:59:32;;;;;;;15.05;6.30;;;11.10;99.70;;;;;;5025241;28;20080;-69
2023/01/02 06:01:57;;;;;;;11.40;5.88;;;11.00;99.90;;;;;;5023555;28;20080;-69
2023/01/02 06:04:23;;;;;;;17.80;5.28;;;11.10;99.90;;;;;;5026328;28;20080;-69
2023/01/02 06:06:48;;;;;;;15.23;5.95;;;11.10;99.90;;;;;;5025415;28;20033;-69
2023/01/02 06:09:15;;;;;;;18.45;6.28;;;11.00;99.90;;;;;;5020040;28;20026;-69
2023/01/02 06:11:41;;;;;;;23.48;6.57;;;11.00;99.90;;;;;;5028791;28;20088;-69
2023/01/02 06:14:10;;;;;;;13.25;5.90;;;11.00;99.90;;;;;;5027215;28;20033;-69
2023/01/02 06:16:39;;;;;;;14.00;5.97;;;11.00;99.90;;;;;;5027040;28;20041;-69
2023/01/02 06:19:05;;;;;;;16.35;6.60;;;11.00;99.90;;;;;;5023617;28;20029;-69
2023/01/02 06:21:31;;;;;;;17.60;6.25;;;11.00;99.90;;;;;;5023190;28;20053;-69
2023/01/02 06:23:57;;;;;;;13.50;5.97;;;11.10;99.90;;;;;;5022140;28;20420;-69
2023/01/02 06:26:25;;;;;;;16.88;6.32;;;11.10;99.90;;;;;;5022166;28;20083;-69
2023/01/02 06:28:53;;;;;;;16.30;6.05;;;11.10;99.90;;;;;;5023115;28;20983;-69
2023/01/02 06:31:22;;;;;;;13.07;6.00;;;11.10;99.90;;;;;;5029119;28;20022;-69
2023/01/02 06:33:52;;;;;;;16.13;5.93;;;11.20;99.90;;;;;;5028968;28;20041;-69
2023/01/02 06:36:18;;;;;;;15.70;6.10;;;11.20;99.90;;;;;;5027084;28;20033;-69
2023/01/02 06:38:44;;;;;;;13.55;6.03;;;11.20;99.90;;;;;;5030497;28;20519;-69
2023/01/02 06:41:10;;;;;;;16.10;6.68;;;11.20;99.90;;;;;;5033599;28;20049;-70
2023/01/02 06:43:45;;;;;;;14.98;5.30;;;11.20;99.90;;;;;;5035110;28;20045;-70
2023/01/02 06:46:11;;;;;;;16.00;5.95;;;11.20;99.90;;;;;;5023199;28;20036;-69
2023/01/02 06:48:37;;;;;;;14.02;6.28;;;11.20;99.90;;;;;;5032920;28;20416;-70
2023/01/02 06:51:07;;;;;;;19.65;5.65;;;11.20;99.90;;;;;;5030679;28;20414;-69
2023/01/02 06:53:34;;;;;;;14.02;5.45;;;11.20;99.90;;;;;;5029436;28;20041;-69
2023/01/02 06:55:59;;;;;;;13.07;5.63;;;11.20;99.90;;;;;;5029482;28;20052;-69
2023/01/02 06:58:28;;;;;;;19.00;5.95;;;11.10;99.90;;;;;;5030183;28;20033;-69
2023/01/02 07:00:54;;;;;;;10.77;4.78;;;11.20;99.90;;;;;;5028416;28;20488;-69
2023/01/02 07:03:19;;;;;;;12.70;5.35;;;11.10;99.90;;;;;;5031682;28;20034;-70
2023/01/02 07:05:45;;;;;;;13.93;5.50;;;11.20;99.90;;;;;;5029386;28;20029;-69
2023/01/02 07:08:11;;;;;;;14.02;6.18;;;11.20;99.90;;;;;;5025202;28;20087;-70
2023/01/02 07:10:37;;;;;;;11.82;5.20;;;11.20;99.90;;;;;;5029153;28;20033;-70
2023/01/02 07:13:03;;;;;;;9.40;5.72;;;11.20;99.90;;;;;;5023298;28;20029;-71
2023/01/02 07:15:28;;;;;;;16.25;5.70;;;11.30;99.90;;;;;;5030888;28;20557;-70
2023/01/02 07:17:54;;;;;;;9.52;5.57;;;11.30;99.90;;;;;;5031877;28;20108;-69
2023/01/02 07:20:20;;;;;;;15.40;6.43;;;11.30;99.90;;;;;;5027862;28;20099;-70
2023/01/02 07:22:53;;;;;;;14.05;5.35;;;11.20;99.90;;;;;;5026017;28;20456;-70
2023/01/02 07:25:20;;;;;;;12.80;5.90;;;11.20;99.90;;;;;;5028194;28;20485;-69
2023/01/02 07:27:45;;;;;;;13.70;5.03;;;11.20;99.90;;;;;;5027884;28;20458;-70
2023/01/02 07:30:12;;;;;;;13.75;5.50;;;11.20;99.90;;;;;;5029115;28;20196;-70
2023/01/02 07:32:37;;;;;;;15.93;5.55;;;11.20;99.90;;;;;;5029691;28;20381;-70
2023/01/02 07:35:03;;;;;;;14.70;5.65;;;11.30;99.90;;;;;;5029951;28;20045;-70
2023/01/02 07:37:29;;;;;;;15.85;5.65;;;11.30;99.90;;;;;;5023253;28;20133;-70
2023/01/02 07:39:54;;;;;;;13.25;6.05;;;11.30;99.90;;;;;;5032110;28;20081;-70
2023/01/02 07:42:20;;;;;;;13.77;5.72;;;11.30;99.90;;;;;;5031076;28;20466;-70
2023/01/02 07:44:45;;;;;;;14.40;5.72;;;11.30;99.90;;;;;;5029901;28;20079;-70
2023/01/02 07:47:11;;;;;;;15.75;6.20;;;11.40;99.90;;;;;;5029987;28;20454;-70
2023/01/02 07:49:36;;;;;;;16.75;5.82;;;11.30;99.80;;;;;;5029276;28;20048;-70
2023/01/02 07:52:01;;;;;;;12.45;5.75;;;11.30;99.80;;;;;;5026863;28;20037;-69
2023/01/02 07:54:27;;;;;;;16.63;5.60;;;11.40;99.80;;;;;;5032732;28;20038;-69
2023/01/02 07:56:52;;;;;;;14.48;6.07;;;11.40;99.50;;;;;;5029169;28;20056;-70
2023/01/02 07:59:18;;;;;;;18.05;6.10;;;11.40;99.50;;;;;;5027006;28;20025;-69
2023/01/02 08:01:43;;;;;;;12.35;5.45;;;11.40;99.50;;;;;;5030410;28;20108;-70
2023/01/02 08:04:09;;;;;;;13.27;5.82;;;11.40;99.40;;;;;;5030167;28;20034;-70
2023/01/02 08:06:37;;;;;;;12.93;6.47;;;11.50;99.40;;;;;;5021600;28;20432;-70
2023/01/02 08:09:03;;;;;;;13.90;5.35;;;11.60;99.00;;;;;;5026647;28;20037;-69
2023/01/02 08:11:28;;;;;;;10.25;4.93;;;11.60;98.70;;;;;;5029818;28;20186;-70
2023/01/02 08:13:54;;;;;;;11.85;4.90;;;11.60;98.70;;;;;;5022629;28;20501;-70
2023/01/02 08:16:21;;;;;;;11.60;4.80;;;11.60;98.60;;;;;;5029004;28;20084;-70
2023/01/02 08:18:47;;;;;;;11.52;4.97;;;11.60;98.50;;;;;;5030244;28;20034;-69
2023/01/02 08:21:13;;;;;;;16.10;5.30;;;11.70;98.00;;;;;;5024790;28;20124;-70
2023/01/02 08:23:38;;;;;;;11.15;4.82;;;11.70;97.90;;;;;;5018714;28;20048;-69
2023/01/02 08:26:06;;;;;;;12.30;4.60;;;11.70;97.70;;;;;;5019251;28;20025;-69
2023/01/02 08:28:33;;;;;;;12.02;4.68;;;11.70;97.80;;;;;;5026697;28;20438;-69
2023/01/02 08:30:59;;;;;;;10.95;4.60;;;11.70;97.90;;;;;;5029079;28;20052;-70
2023/01/02 08:33:25;;;;;;;11.48;4.15;;;11.70;97.60;;;;;;5024123;28;20041;-70
2023/01/02 08:35:51;;;;;;;14.05;4.40;;;11.70;97.40;;;;;;5029782;28;20038;-70
2023/01/02 08:38:17;;;;;;;16.48;3.90;;;11.80;97.30;;;;;;5027499;28;20041;-70
2023/01/02 08:40:42;;;;;;;10.18;4.13;;;11.80;97.00;;;;;;5030666;28;20025;-71
2023/01/02 08:43:08;;;;;;;7.15;3.47;;;11.80;96.90;;;;;;5026316;28;20033;-71
2023/01/02 08:45:34;;;;;;;10.52;3.72;;;11.90;96.70;;;;;;5024671;28;20511;-70
2023/01/02 08:47:59;;;;;;;17.88;3.80;;;11.90;96.40;;;;;;5023816;28;20033;-71
2023/01/02 08:50:25;;;;;;;10.23;3.60;;;11.90;96.40;;;;;;5025276;28;20555;-71
2023/01/02 08:52:50;;;;;;;10.95;3.53;;;12.00;96.00;;;;;;5023019;28;20037;-70
2023/01/02 08:55:16;;;;;;;8.80;3.38;;;12.00;96.00;;;;;;5031755;28;20417;-70
2023/01/02 08:57:42;;;;;;;8.95;3.42;;;12.10;95.70;;;;;;5025037;28;20034;-70
2023/01/02 09:00:08;;;;;;;13.13;3.63;;;12.10;95.60;;;;;;5019779;28;20034;-73
2023/01/02 09:02:34;;;;;;;6.25;3.35;;;12.10;95.50;;;;;;5027543;28;20556;-70
2023/01/02 09:04:59;;;;;;;8.57;3.75;;;12.00;95.40;;;;;;5023715;28;20049;-70
2023/01/02 09:07:25;;;;;;;10.25;3.90;;;12.00;95.30;;;;;;5019763;28;20025;-70
2023/01/02 09:09:50;;;;;;;11.45;3.30;;;12.10;95.00;;;;;;5024920;28;20462;-70
2023/01/02 09:12:16;;;;;;;6.57;3.00;;;12.20;94.60;;;;;;5028402;28;20381;-70
2023/01/02 09:14:41;;;;;;;11.80;3.47;;;12.10;94.90;;;;;;5030528;28;20029;-70
2023/01/02 09:17:07;;;;;;;9.68;3.25;;;12.10;94.80;;;;;;5027310;28;20501;-70
2023/01/02 09:19:33;;;;;;;6.32;3.25;;;12.10;94.80;;;;;;5029211;28;20041;-70
2023/01/02 09:22:00;;;;;;;9.18;3.38;;;12.20;94.90;;;;;;5020120;28;20104;-70
2023/01/02 09:24:26;;;;;;;11.35;3.47;;;12.20;94.40;;;;;;5027883;28;20033;-70
2023/01/02 09:26:52;;;;;;;11.00;3.53;;;12.30;94.50;;;;;;5026925;28;20033;-70
2023/01/02 09:29:18;;;;;;;7.43;3.20;;;12.30;94.40;;;;;;5023012;28;20117;-70
2023/01/02 09:31:43;;;;;;;8.77;3.30;;;12.30;94.40;;;;;;5030537;28;20042;-70
2023/01/02 09:34:08;;;;;;;11.40;3.40;;;12.30;94.40;;;;;;5026503;28;20026;-71
2023/01/02 09:36:34;;;;;;;11.10;3.42;;;12.30;94.50;;;;;;5022911;28;20117;-70
2023/01/02 09:39:01;;;;;;;8.27;3.30;;;12.30;94.50;;;;;;5020529;28;20109;-71
2023/01/02 09:41:42;;;;;;;7.78;3.58;;;12.30;94.50;;;;;;5028747;28;20069;-70
2023/01/02 09:44:14;;;;;;;;;;;12.30;94.50;;;;;;5030437;28;20417;-70
2023/01/02 09:46:53;;;;;;;10.30;3.22;;;12.30;94.20;;;;;;5030797;28;19916;-69
2023/01/02 09:49:26;;;;;;;5.65;3.17;;;12.30;94.20;;;;;;5025394;28;20036;-70
2023/01/02 09:51:51;;;;;;;8.93;3.15;;;12.40;93.80;;;;;;5023872;28;20445;-71
2023/01/02 09:54:25;;;;;;;9.73;3.00;;;12.40;93.90;;;;;;5024530;28;20038;-72
2023/01/02 09:57:25;;;;;;;9.57;3.10;;;12.40;93.70;;;;;;5027446;28;20056;-72
2023/01/02 09:59:56;;;;;;;5.72;2.78;;;12.40;93.80;;;;;;5026230;28;20036;-72
2023/01/02 10:02:49;;;;;;;10.15;2.97;;;12.40;93.50;;;;;;5024508;28;20025;-71
2023/01/02 10:05:39;;;;;;;7.78;2.95;;;12.40;93.40;;;;;;5022715;28;20407;-72
2023/01/02 10:08:23;;;;;;;6.85;3.50;;;12.50;92.70;;;;;;5026815;28;20033;-70
2023/01/02 10:11:15;;;;;;;11.63;3.22;;;12.50;93.30;;;;;;5034703;28;20083;-71
2023/01/02 10:13:56;;;;;;;6.78;2.70;;;12.40;93.00;;;;;;5022258;28;20634;-73
2023/01/02 10:16:27;;;;;;;8.23;2.95;;;12.50;92.70;;;;;;5032263;28;20068;-73
2023/01/02 10:18:54;;;;;;;6.35;3.42;;;12.50;92.60;;;;;;5029770;28;20822;-73
2023/01/02 10:21:24;;;;;;;8.57;3.35;;;12.50;92.90;;;;;;5024192;28;20056;-73
2023/01/02 10:23:55;;;;;;;7.85;3.20;;;12.40;93.40;;;;;;5033516;28;20033;-73
2023/01/02 10:26:27;;;;;;;7.43;3.28;;;12.40;93.40;;;;;;5027223;28;20029;-73
2023/01/02 10:29:12;;;;;;;6.70;3.33;;;12.30;93.70;;;;;;5018946;28;20037;-71
2023/01/02 10:31:48;;;;;;;9.00;3.65;;;12.30;93.70;;;;;;5024924;28;20045;-71
2023/01/02 10:34:17;;;;;;;7.35;3.40;;;12.40;93.30;;;;;;5027884;28;20072;-71
2023/01/02 10:36:44;;;;;;;11.98;3.45;;;12.40;93.70;;;;;;5023891;28;20033;-71
2023/01/02 10:39:18;;;;;;;8.32;3.30;;;12.30;94.00;;;;;;5029469;28;20432;-69
2023/01/02 10:41:48;;;;;;;7.47;3.42;;;12.30;94.00;;;;;;5030283;28;20470;-72
2023/01/02 10:44:25;;;;;;;7.35;3.00;;;12.30;94.00;;;;;;5029435;28;20033;-72
2023/01/02 10:46:50;;;;;;;8.23;3.40;;;12.30;94.00;;;;;;5033167;28;20091;-71
2023/01/02 10:49:18;;;;;;;9.00;3.55;;;12.10;94.70;;;;;;5030630;28;20029;-72
2023/01/02 10:51:50;;;;;;;9.85;3.53;;;12.10;95.50;;;;;;5023452;28;20060;-73
2023/01/02 10:54:16;;;;;;;5.95;3.60;;;12.10;95.30;;;;;;5028358;28;20029;-72
2023/01/02 10:56:48;;;;;;;6.60;3.30;;;12.10;95.20;;;;;;5031399;28;20038;-72
2023/01/02 10:59:21;;;;;;;8.32;3.53;;;12.10;95.40;;;;;;5023949;28;20096;-72
2023/01/02 11:01:56;;;;;;;9.90;3.88;;;12.10;95.70;;;;;;5030309;28;20040;-71
2023/01/02 11:04:27;;;;;;;7.03;3.67;;;12.10;95.60;;;;;;5033592;28;20397;-70
2023/01/02 11:06:57;;;;;;;10.80;3.38;;;12.20;95.60;;;;;;5026643;28;20022;-70
2023/01/02 11:09:26;;;;;;;7.10;3.15;;;12.20;95.50;;;;;;5021294;28;20083;-75
2023/01/02 11:11:55;;;;;;;6.15;2.75;;;12.20;95.10;;;;;;5024284;28;20037;-82
2023/01/02 11:14:25;;;;;;;6.00;2.65;;;12.20;94.40;;;;;;5022534;28;20029;-77
2023/01/02 11:16:52;;;;;;;5.77;2.60;;;12.20;94.70;;;;;;5031942;28;20041;-76
2023/01/02 11:19:20;;;;;;;4.47;2.28;;;12.20;94.90;;;;;;5030825;28;20025;-77
2023/01/02 11:21:47;;;;;;;7.57;2.80;;;12.10;94.60;;;;;;5029117;28;20111;-76
2023/01/02 11:24:18;;;;;;;3.53;2.20;;;12.10;94.00;;;;;;5028460;28;20045;-75
2023/01/02 11:26:46;;;;;;;4.63;2.33;;;12.00;94.00;;;;;;5033471;28;20037;-72
2023/01/02 11:29:17;;;;;;;4.72;2.28;;;11.90;94.40;;;;;;5030266;28;20119;-70
2023/01/02 11:31:44;;;;;;;2.00;1.17;;;11.80;95.20;;;;;;5033735;28;20064;-72
2023/01/02 11:34:19;;;;;;;1.77;1.00;;;11.40;93.50;;;;;;5029112;28;20033;-75
2023/01/02 11:36:59;;;;;;;3.28;1.00;;;11.20;93.90;;;;;;5028501;28;20033;-75
2023/01/02 11:39:24;;;;;;;1.30;0.90;;;11.10;94.60;;;;;;5020865;28;20046;-75
2023/01/02 11:45:09;;;;;;;2.53;0.90;;;10.90;95.30;;;;;;5027502;28;20389;-72
2023/01/02 11:47:48;;;;;;;0.98;0.70;;;10.80;95.60;;;;;;5032364;28;20466;-71
2023/01/02 11:50:26;;;;;;;1.25;0.65;;;10.70;95.10;;;;;;5024993;28;20045;-72
2023/01/02 11:52:55;;;;;;;0.80;0.60;;;10.60;95.10;;;;;;5023975;28;20029;-73
2023/01/02 11:55:33;;;;;;;0.77;0.68;;;10.50;94.20;;;;;;5027033;28;20042;-73
2023/01/02 11:58:20;;;;;;;0.60;0.60;;;10.50;94.50;;;;;;5022912;28;20030;-72
2023/01/02 12:00:49;;;;;;;0.55;0.50;;;10.40;94.20;;;;;;5025982;28;20041;-71
2023/01/02 12:03:19;;;;;;;1.58;0.43;;;10.30;94.10;;;;;;5029805;28;20025;-71
2023/01/02 12:06:08;;;;;;;1.25;0.50;;;10.20;94.00;;;;;;5028931;28;20034;-71
2023/01/02 12:09:12;;;;;;;1.13;0.65;;;10.20;94.40;;;;;;5021029;28;20041;-71
2023/01/02 12:12:00;;;;;;;0.35;0.35;;;10.10;94.80;;;;;;5016099;28;20034;-73
2023/01/02 12:14:44;;;;;;;0.80;0.50;;;9.80;94.30;;;;;;5024269;28;20076;-71
2023/01/02 12:17:18;;;;;;;0.70;0.50;;;9.60;94.80;;;;;;5023848;28;20033;-71
2023/01/02 12:19:52;;;;;;;0.75;0.50;;;9.60;95.20;;;;;;5021028;28;20033;-70
2023/01/02 12:22:48;;;;;;;0.77;0.52;;;9.40;95.30;;;;;;5019609;28;20049;-73
2023/01/02 12:25:37;;;;;;;0.57;0.35;;;9.30;95.10;;;;;;5023239;28;20029;-70
2023/01/02 12:28:49;;;;;;;1.98;0.40;;;9.30;95.20;;;;;;5023605;28;20504;-71
2023/01/02 12:31:35;;;;;;;;;;;9.20;95.10;;;;;;5024172;28;20053;-72
2023/01/02 12:34:07;;;;;;;1.17;0.70;;;9.20;95.30;;;;;;5025805;28;20367;-72
2023/01/02 12:36:37;;;;;;;1.42;0.70;;;9.10;95.40;;;;;;5025330;28;20038;-71
2023/01/02 12:39:26;;;;;;;1.15;0.70;;;9.10;95.50;;;;;;5022652;28;20120;-71
2023/01/02 12:42:09;;;;;;;1.23;0.50;;;9.10;95.70;;;;;;5027023;28;20045;-70
2023/01/02 12:44:43;;;;;;;0.35;0.35;;;9.10;95.60;;;;;;5027283;28;20036;-71
2023/01/02 12:47:40;;;;;;;0.88;0.40;;;9.10;95.20;;;;;;5024799;28;20040;-71
2023/01/02 12:50:14;;;;;;;0.30;0.30;;;9.10;94.80;;;;;;5022486;28;20026;-71
2023/01/02 12:53:20;;;;;;;0.40;0.40;;;9.10;95.00;;;;;;5022506;28;20393;-70
2023/01/02 12:55:58;;;;;;;0.55;0.40;;;9.00;94.20;;;;;;5023901;28;20037;-70
2023/01/02 12:58:41;;;;;;;0.77;0.47;;;9.00;94.40;;;;;;5030325;28;20458;-70
2023/01/02 13:01:29;;;;;;;1.10;0.40;;;9.00;94.70;;;;;;5026727;28;20033;-70
2023/01/02 13:04:03;;;;;;;1.48;0.70;;;9.00;94.60;;;;;;5025733;28;20037;-70
2023/01/02 13:06:51;;;;;;;0.60;0.55;;;9.00;94.30;;;;;;5026810;28;20036;-70
2023/01/02 13:09:24;;;;;;;0.98;0.40;;;9.10;94.00;;;;;;5024488;28;20030;-69